sensor_id;sensor_type;location;lat;lon;timestamp;temperature;humidity
68257;DHT22;55069;51.568;4.656;2023-04-30T00:02:10;8.16;81.95
68257;DHT22;55069;51.568;4.656;2023-04-30T00:04:35;8.05;81.76
68257;DHT22;55069;51.568;4.656;2023-04-30T00:07:01;8.04;82.09
68257;DHT22;55069;51.568;4.656;2023-04-30T00:09:27;8.01;82.10
68257;DHT22;55069;51.568;4.656;2023-04-30T00:11:52;7.98;82.11
68257;DHT22;55069;51.568;4.656;2023-04-30T00:14:18;7.95;81.58
68257;DHT22;55069;51.568;4.656;2023-04-30T00:16:43;7.98;82.02
68257;DHT22;55069;51.568;4.656;2023-04-30T00:19:09;7.93;82.19
68257;DHT22;55069;51.568;4.656;2023-04-30T00:21:35;7.85;82.15
68257;DHT22;55069;51.568;4.656;2023-04-30T00:24:01;7.87;82.61
68257;DHT22;55069;51.568;4.656;2023-04-30T00:26:27;7.90;82.81
68257;DHT22;55069;51.568;4.656;2023-04-30T00:28:53;7.81;82.25
68257;DHT22;55069;51.568;4.656;2023-04-30T00:31:18;7.78;82.84
68257;DHT22;55069;51.568;4.656;2023-04-30T00:33:44;7.77;83.07
68257;DHT22;55069;51.568;4.656;2023-04-30T00:36:10;7.77;83.16
68257;DHT22;55069;51.568;4.656;2023-04-30T00:38:36;7.74;83.15
68257;DHT22;55069;51.568;4.656;2023-04-30T00:41:01;7.73;83.20
68257;DHT22;55069;51.568;4.656;2023-04-30T00:43:27;7.73;83.48
68257;DHT22;55069;51.568;4.656;2023-04-30T00:45:53;7.64;83.56
68257;DHT22;55069;51.568;4.656;2023-04-30T00:48:19;7.62;83.58
68257;DHT22;55069;51.568;4.656;2023-04-30T00:50:45;7.64;83.70
68257;DHT22;55069;51.568;4.656;2023-04-30T00:53:11;7.63;83.86
68257;DHT22;55069;51.568;4.656;2023-04-30T00:55:38;7.64;83.95
68257;DHT22;55069;51.568;4.656;2023-04-30T00:58:04;7.64;83.73
68257;DHT22;55069;51.568;4.656;2023-04-30T01:00:30;7.57;83.83
68257;DHT22;55069;51.568;4.656;2023-04-30T01:02:56;7.53;84.03
68257;DHT22;55069;51.568;4.656;2023-04-30T01:05:22;7.53;84.07
68257;DHT22;55069;51.568;4.656;2023-04-30T01:07:48;7.53;84.19
68257;DHT22;55069;51.568;4.656;2023-04-30T01:10:14;7.43;84.28
68257;DHT22;55069;51.568;4.656;2023-04-30T01:12:49;7.46;84.51
68257;DHT22;55069;51.568;4.656;2023-04-30T01:15:33;7.43;84.57
68257;DHT22;55069;51.568;4.656;2023-04-30T01:18:06;7.36;84.68
68257;DHT22;55069;51.568;4.656;2023-04-30T01:20:38;7.37;84.78
68257;DHT22;55069;51.568;4.656;2023-04-30T01:28:30;7.33;85.13
68257;DHT22;55069;51.568;4.656;2023-04-30T01:30:57;7.29;85.23
68257;DHT22;55069;51.568;4.656;2023-04-30T01:33:23;7.29;85.20
68257;DHT22;55069;51.568;4.656;2023-04-30T01:38:39;7.26;85.34
68257;DHT22;55069;51.568;4.656;2023-04-30T01:46:40;7.19;85.86
68257;DHT22;55069;51.568;4.656;2023-04-30T01:49:21;7.18;85.99
68257;DHT22;55069;51.568;4.656;2023-04-30T01:51:54;7.16;85.89
68257;DHT22;55069;51.568;4.656;2023-04-30T01:57:32;7.15;85.98
68257;DHT22;55069;51.568;4.656;2023-04-30T02:00:02;7.09;86.05
68257;DHT22;55069;51.568;4.656;2023-04-30T02:02:38;7.05;86.18
68257;DHT22;55069;51.568;4.656;2023-04-30T02:05:04;6.99;86.23
68257;DHT22;55069;51.568;4.656;2023-04-30T02:07:44;6.98;86.30
68257;DHT22;55069;51.568;4.656;2023-04-30T02:10:11;6.95;86.38
68257;DHT22;55069;51.568;4.656;2023-04-30T02:12:37;6.97;86.42
68257;DHT22;55069;51.568;4.656;2023-04-30T02:15:04;6.94;86.40
68257;DHT22;55069;51.568;4.656;2023-04-30T02:17:30;6.94;86.40
68257;DHT22;55069;51.568;4.656;2023-04-30T02:19:58;6.89;86.57
68257;DHT22;55069;51.568;4.656;2023-04-30T02:22:24;6.84;86.58
68257;DHT22;55069;51.568;4.656;2023-04-30T02:24:50;6.83;86.73
68257;DHT22;55069;51.568;4.656;2023-04-30T02:27:19;6.87;86.74
68257;DHT22;55069;51.568;4.656;2023-04-30T02:29:45;6.81;86.79
68257;DHT22;55069;51.568;4.656;2023-04-30T02:32:11;6.80;86.85
68257;DHT22;55069;51.568;4.656;2023-04-30T02:34:37;6.78;86.80
68257;DHT22;55069;51.568;4.656;2023-04-30T02:37:02;6.78;86.81
68257;DHT22;55069;51.568;4.656;2023-04-30T02:39:28;6.77;86.83
68257;DHT22;55069;51.568;4.656;2023-04-30T02:41:53;6.74;86.86
68257;DHT22;55069;51.568;4.656;2023-04-30T02:44:19;6.73;86.83
68257;DHT22;55069;51.568;4.656;2023-04-30T02:46:45;6.70;86.92
68257;DHT22;55069;51.568;4.656;2023-04-30T02:49:10;6.68;86.83
68257;DHT22;55069;51.568;4.656;2023-04-30T02:51:36;6.68;86.75
68257;DHT22;55069;51.568;4.656;2023-04-30T02:54:02;6.70;86.76
68257;DHT22;55069;51.568;4.656;2023-04-30T02:56:27;6.63;86.70
68257;DHT22;55069;51.568;4.656;2023-04-30T02:58:53;6.58;86.95
68257;DHT22;55069;51.568;4.656;2023-04-30T03:01:19;6.49;87.42
68257;DHT22;55069;51.568;4.656;2023-04-30T03:03:44;6.43;88.33
68257;DHT22;55069;51.568;4.656;2023-04-30T03:06:10;6.41;88.55
68257;DHT22;55069;51.568;4.656;2023-04-30T03:08:36;6.40;88.69
68257;DHT22;55069;51.568;4.656;2023-04-30T03:11:01;6.40;88.48
68257;DHT22;55069;51.568;4.656;2023-04-30T03:13:27;6.43;88.47
68257;DHT22;55069;51.568;4.656;2023-04-30T03:15:59;6.41;88.33
68257;DHT22;55069;51.568;4.656;2023-04-30T03:18:28;6.37;88.32
68257;DHT22;55069;51.568;4.656;2023-04-30T03:20:54;6.33;88.38
68257;DHT22;55069;51.568;4.656;2023-04-30T03:23:20;6.34;88.46
68257;DHT22;55069;51.568;4.656;2023-04-30T03:25:46;6.30;88.35
68257;DHT22;55069;51.568;4.656;2023-04-30T03:28:12;6.26;88.50
68257;DHT22;55069;51.568;4.656;2023-04-30T03:30:38;6.29;88.47
68257;DHT22;55069;51.568;4.656;2023-04-30T03:33:04;6.26;88.48
68257;DHT22;55069;51.568;4.656;2023-04-30T03:35:33;6.26;88.45
68257;DHT22;55069;51.568;4.656;2023-04-30T03:37:59;6.23;88.38
68257;DHT22;55069;51.568;4.656;2023-04-30T03:40:25;6.23;88.30
68257;DHT22;55069;51.568;4.656;2023-04-30T03:42:51;6.22;88.29
68257;DHT22;55069;51.568;4.656;2023-04-30T03:45:18;6.19;88.28
68257;DHT22;55069;51.568;4.656;2023-04-30T03:47:44;6.19;88.28
68257;DHT22;55069;51.568;4.656;2023-04-30T03:50:10;6.18;88.25
68257;DHT22;55069;51.568;4.656;2023-04-30T03:52:36;6.16;88.30
68257;DHT22;55069;51.568;4.656;2023-04-30T03:55:03;6.18;88.41
68257;DHT22;55069;51.568;4.656;2023-04-30T03:57:29;6.13;88.39
68257;DHT22;55069;51.568;4.656;2023-04-30T03:59:55;6.11;88.29
68257;DHT22;55069;51.568;4.656;2023-04-30T04:02:21;6.13;88.16
68257;DHT22;55069;51.568;4.656;2023-04-30T04:04:47;6.13;88.09
68257;DHT22;55069;51.568;4.656;2023-04-30T04:07:14;6.06;88.13
68257;DHT22;55069;51.568;4.656;2023-04-30T04:09:40;6.08;88.23
68257;DHT22;55069;51.568;4.656;2023-04-30T04:12:06;6.03;88.46
68257;DHT22;55069;51.568;4.656;2023-04-30T04:14:32;6.06;88.44
68257;DHT22;55069;51.568;4.656;2023-04-30T04:16:58;6.03;88.33
68257;DHT22;55069;51.568;4.656;2023-04-30T04:19:30;6.01;88.30
68257;DHT22;55069;51.568;4.656;2023-04-30T04:21:56;5.98;88.48
68257;DHT22;55069;51.568;4.656;2023-04-30T04:24:24;6.01;88.93
68257;DHT22;55069;51.568;4.656;2023-04-30T04:26:50;6.02;88.90
68257;DHT22;55069;51.568;4.656;2023-04-30T04:29:16;6.06;89.51
68257;DHT22;55069;51.568;4.656;2023-04-30T04:31:42;6.03;90.31
68257;DHT22;55069;51.568;4.656;2023-04-30T04:34:09;6.05;90.36
68257;DHT22;55069;51.568;4.656;2023-04-30T04:36:35;6.08;90.18
68257;DHT22;55069;51.568;4.656;2023-04-30T04:39:01;6.05;90.03
68257;DHT22;55069;51.568;4.656;2023-04-30T04:41:31;6.06;89.97
68257;DHT22;55069;51.568;4.656;2023-04-30T04:44:01;6.11;89.96
68257;DHT22;55069;51.568;4.656;2023-04-30T04:46:29;6.13;89.85
68257;DHT22;55069;51.568;4.656;2023-04-30T04:48:56;6.12;89.79
68257;DHT22;55069;51.568;4.656;2023-04-30T04:51:23;6.15;89.66
68257;DHT22;55069;51.568;4.656;2023-04-30T04:53:48;6.16;89.72
68257;DHT22;55069;51.568;4.656;2023-04-30T04:56:14;6.22;89.85
68257;DHT22;55069;51.568;4.656;2023-04-30T04:58:41;6.25;89.56
68257;DHT22;55069;51.568;4.656;2023-04-30T05:01:07;6.23;89.46
68257;DHT22;55069;51.568;4.656;2023-04-30T05:03:34;6.26;89.55
68257;DHT22;55069;51.568;4.656;2023-04-30T05:06:04;6.30;89.54
68257;DHT22;55069;51.568;4.656;2023-04-30T05:08:30;6.32;89.39
68257;DHT22;55069;51.568;4.656;2023-04-30T05:10:56;6.32;89.27
68257;DHT22;55069;51.568;4.656;2023-04-30T05:13:22;6.37;89.62
68257;DHT22;55069;51.568;4.656;2023-04-30T05:15:51;6.40;89.46
68257;DHT22;55069;51.568;4.656;2023-04-30T05:18:17;6.46;89.55
68257;DHT22;55069;51.568;4.656;2023-04-30T05:20:43;6.50;89.63
68257;DHT22;55069;51.568;4.656;2023-04-30T05:23:09;6.51;89.68
68257;DHT22;55069;51.568;4.656;2023-04-30T05:25:35;6.53;89.46
68257;DHT22;55069;51.568;4.656;2023-04-30T05:28:01;6.60;89.52
68257;DHT22;55069;51.568;4.656;2023-04-30T05:30:28;6.68;90.17
68257;DHT22;55069;51.568;4.656;2023-04-30T05:32:54;6.74;90.03
68257;DHT22;55069;51.568;4.656;2023-04-30T05:35:21;6.81;90.14
68257;DHT22;55069;51.568;4.656;2023-04-30T05:37:47;6.89;89.98
68257;DHT22;55069;51.568;4.656;2023-04-30T05:40:13;7.02;90.04
68257;DHT22;55069;51.568;4.656;2023-04-30T05:42:39;7.11;90.27
68257;DHT22;55069;51.568;4.656;2023-04-30T05:45:08;7.22;90.06
68257;DHT22;55069;51.568;4.656;2023-04-30T05:47:34;7.26;89.93
68257;DHT22;55069;51.568;4.656;2023-04-30T05:49:59;7.40;89.77
68257;DHT22;55069;51.568;4.656;2023-04-30T05:52:25;7.52;89.44
68257;DHT22;55069;51.568;4.656;2023-04-30T05:54:51;7.67;89.24
68257;DHT22;55069;51.568;4.656;2023-04-30T05:57:16;7.71;88.82
68257;DHT22;55069;51.568;4.656;2023-04-30T05:59:42;7.83;88.68
68257;DHT22;55069;51.568;4.656;2023-04-30T06:02:08;7.94;88.25
68257;DHT22;55069;51.568;4.656;2023-04-30T06:04:34;8.02;88.17
68257;DHT22;55069;51.568;4.656;2023-04-30T06:06:59;8.09;87.90
68257;DHT22;55069;51.568;4.656;2023-04-30T06:09:25;8.14;87.97
68257;DHT22;55069;51.568;4.656;2023-04-30T06:11:51;8.29;87.88
68257;DHT22;55069;51.568;4.656;2023-04-30T06:14:17;8.33;87.63
68257;DHT22;55069;51.568;4.656;2023-04-30T06:16:44;8.42;87.24
68257;DHT22;55069;51.568;4.656;2023-04-30T06:19:10;8.50;87.00
68257;DHT22;55069;51.568;4.656;2023-04-30T06:21:36;8.60;86.32
68257;DHT22;55069;51.568;4.656;2023-04-30T06:24:02;8.63;85.83
68257;DHT22;55069;51.568;4.656;2023-04-30T06:26:28;8.70;85.75
68257;DHT22;55069;51.568;4.656;2023-04-30T06:28:54;8.76;84.92
68257;DHT22;55069;51.568;4.656;2023-04-30T06:31:20;8.81;85.45
68257;DHT22;55069;51.568;4.656;2023-04-30T06:33:46;8.88;85.00
68257;DHT22;55069;51.568;4.656;2023-04-30T06:36:11;8.94;84.74
68257;DHT22;55069;51.568;4.656;2023-04-30T06:38:37;9.00;84.54
68257;DHT22;55069;51.568;4.656;2023-04-30T06:41:03;9.12;84.64
68257;DHT22;55069;51.568;4.656;2023-04-30T06:43:28;9.14;84.65
68257;DHT22;55069;51.568;4.656;2023-04-30T06:45:54;9.31;84.03
68257;DHT22;55069;51.568;4.656;2023-04-30T06:48:20;9.42;83.83
68257;DHT22;55069;51.568;4.656;2023-04-30T06:50:45;9.45;83.36
68257;DHT22;55069;51.568;4.656;2023-04-30T06:53:11;9.56;84.00
68257;DHT22;55069;51.568;4.656;2023-04-30T06:55:37;9.72;83.69
68257;DHT22;55069;51.568;4.656;2023-04-30T06:58:03;9.83;82.89
68257;DHT22;55069;51.568;4.656;2023-04-30T07:00:30;9.94;82.58
68257;DHT22;55069;51.568;4.656;2023-04-30T07:02:56;10.04;82.57
68257;DHT22;55069;51.568;4.656;2023-04-30T07:05:25;10.22;81.32
68257;DHT22;55069;51.568;4.656;2023-04-30T07:07:51;10.35;81.89
68257;DHT22;55069;51.568;4.656;2023-04-30T07:10:17;10.52;81.15
68257;DHT22;55069;51.568;4.656;2023-04-30T07:12:44;10.61;80.45
68257;DHT22;55069;51.568;4.656;2023-04-30T07:15:09;10.76;79.65
68257;DHT22;55069;51.568;4.656;2023-04-30T07:17:35;10.88;79.19
68257;DHT22;55069;51.568;4.656;2023-04-30T07:20:02;10.96;79.12
68257;DHT22;55069;51.568;4.656;2023-04-30T07:22:29;11.06;79.33
68257;DHT22;55069;51.568;4.656;2023-04-30T07:24:56;11.11;78.66
68257;DHT22;55069;51.568;4.656;2023-04-30T07:27:21;11.27;78.63
68257;DHT22;55069;51.568;4.656;2023-04-30T07:29:47;11.35;77.79
68257;DHT22;55069;51.568;4.656;2023-04-30T07:32:14;11.55;77.54
68257;DHT22;55069;51.568;4.656;2023-04-30T07:34:41;11.68;77.10
68257;DHT22;55069;51.568;4.656;2023-04-30T07:37:07;11.82;76.39
68257;DHT22;55069;51.568;4.656;2023-04-30T07:39:34;11.92;76.04
68257;DHT22;55069;51.568;4.656;2023-04-30T07:42:01;12.03;75.78
68257;DHT22;55069;51.568;4.656;2023-04-30T07:44:27;12.12;74.83
68257;DHT22;55069;51.568;4.656;2023-04-30T07:46:53;12.19;75.45
68257;DHT22;55069;51.568;4.656;2023-04-30T07:49:18;12.32;74.53
68257;DHT22;55069;51.568;4.656;2023-04-30T07:51:44;12.50;74.27
68257;DHT22;55069;51.568;4.656;2023-04-30T07:54:10;12.61;73.49
68257;DHT22;55069;51.568;4.656;2023-04-30T07:56:36;12.64;73.68
68257;DHT22;55069;51.568;4.656;2023-04-30T07:59:02;12.77;72.93
68257;DHT22;55069;51.568;4.656;2023-04-30T08:01:27;12.89;72.36
68257;DHT22;55069;51.568;4.656;2023-04-30T08:03:53;12.93;72.14
68257;DHT22;55069;51.568;4.656;2023-04-30T08:06:19;13.08;71.96
68257;DHT22;55069;51.568;4.656;2023-04-30T08:08:44;13.19;71.55
68257;DHT22;55069;51.568;4.656;2023-04-30T08:11:10;13.35;71.80
68257;DHT22;55069;51.568;4.656;2023-04-30T08:13:36;13.46;71.80
68257;DHT22;55069;51.568;4.656;2023-04-30T08:16:02;13.58;70.83
68257;DHT22;55069;51.568;4.656;2023-04-30T08:18:28;13.78;69.97
68257;DHT22;55069;51.568;4.656;2023-04-30T08:20:54;13.89;70.08
68257;DHT22;55069;51.568;4.656;2023-04-30T08:23:20;14.02;70.42
68257;DHT22;55069;51.568;4.656;2023-04-30T08:25:45;14.04;69.93
68257;DHT22;55069;51.568;4.656;2023-04-30T08:28:11;14.12;68.40
68257;DHT22;55069;51.568;4.656;2023-04-30T08:30:38;14.21;67.83
68257;DHT22;55069;51.568;4.656;2023-04-30T08:33:03;14.29;67.82
68257;DHT22;55069;51.568;4.656;2023-04-30T08:35:29;14.46;68.38
68257;DHT22;55069;51.568;4.656;2023-04-30T08:37:55;14.56;66.15
68257;DHT22;55069;51.568;4.656;2023-04-30T08:40:21;14.61;65.69
68257;DHT22;55069;51.568;4.656;2023-04-30T08:43:03;14.57;65.17
68257;DHT22;55069;51.568;4.656;2023-04-30T08:45:30;14.77;66.69
68257;DHT22;55069;51.568;4.656;2023-04-30T08:47:58;14.92;65.09
68257;DHT22;55069;51.568;4.656;2023-04-30T08:50:24;14.97;63.81
68257;DHT22;55069;51.568;4.656;2023-04-30T08:52:50;15.17;64.88
68257;DHT22;55069;51.568;4.656;2023-04-30T08:55:16;15.17;63.04
68257;DHT22;55069;51.568;4.656;2023-04-30T08:57:42;15.11;63.10
68257;DHT22;55069;51.568;4.656;2023-04-30T09:00:07;15.12;63.72
68257;DHT22;55069;51.568;4.656;2023-04-30T09:02:34;15.25;63.88
68257;DHT22;55069;51.568;4.656;2023-04-30T09:05:11;15.52;61.96
68257;DHT22;55069;51.568;4.656;2023-04-30T09:07:44;15.59;61.99
68257;DHT22;55069;51.568;4.656;2023-04-30T09:10:16;15.48;60.98
68257;DHT22;55069;51.568;4.656;2023-04-30T09:12:42;15.40;62.90
68257;DHT22;55069;51.568;4.656;2023-04-30T09:15:11;15.62;62.07
68257;DHT22;55069;51.568;4.656;2023-04-30T09:17:36;15.80;60.05
68257;DHT22;55069;51.568;4.656;2023-04-30T09:20:10;15.96;60.03
68257;DHT22;55069;51.568;4.656;2023-04-30T09:22:37;16.20;60.52
68257;DHT22;55069;51.568;4.656;2023-04-30T09:25:03;16.26;59.58
68257;DHT22;55069;51.568;4.656;2023-04-30T09:27:29;16.35;59.21
68257;DHT22;55069;51.568;4.656;2023-04-30T09:29:55;16.08;58.39
68257;DHT22;55069;51.568;4.656;2023-04-30T09:32:21;16.28;58.02
68257;DHT22;55069;51.568;4.656;2023-04-30T09:34:46;16.35;58.81
68257;DHT22;55069;51.568;4.656;2023-04-30T09:37:12;16.63;58.55
68257;DHT22;55069;51.568;4.656;2023-04-30T09:39:48;16.62;57.54
68257;DHT22;55069;51.568;4.656;2023-04-30T09:42:14;16.75;56.95
68257;DHT22;55069;51.568;4.656;2023-04-30T09:44:41;16.63;57.92
68257;DHT22;55069;51.568;4.656;2023-04-30T09:47:15;16.41;58.87
68257;DHT22;55069;51.568;4.656;2023-04-30T09:49:48;16.53;58.32
68257;DHT22;55069;51.568;4.656;2023-04-30T09:52:16;16.36;58.92
68257;DHT22;55069;51.568;4.656;2023-04-30T09:54:46;16.49;59.66
68257;DHT22;55069;51.568;4.656;2023-04-30T09:57:13;16.41;58.35
68257;DHT22;55069;51.568;4.656;2023-04-30T09:59:43;16.52;58.43
68257;DHT22;55069;51.568;4.656;2023-04-30T10:02:13;16.49;58.42
68257;DHT22;55069;51.568;4.656;2023-04-30T10:04:42;16.70;58.22
68257;DHT22;55069;51.568;4.656;2023-04-30T10:07:12;16.72;58.11
68257;DHT22;55069;51.568;4.656;2023-04-30T10:09:50;16.58;58.50
68257;DHT22;55069;51.568;4.656;2023-04-30T10:12:34;16.80;58.06
68257;DHT22;55069;51.568;4.656;2023-04-30T10:15:10;16.76;58.13
68257;DHT22;55069;51.568;4.656;2023-04-30T10:17:38;16.84;58.53
68257;DHT22;55069;51.568;4.656;2023-04-30T10:20:08;17.09;57.58
68257;DHT22;55069;51.568;4.656;2023-04-30T10:22:34;17.11;57.79
68257;DHT22;55069;51.568;4.656;2023-04-30T10:25:01;17.09;57.57
68257;DHT22;55069;51.568;4.656;2023-04-30T10:27:28;17.11;57.65
68257;DHT22;55069;51.568;4.656;2023-04-30T10:29:54;17.41;57.52
68257;DHT22;55069;51.568;4.656;2023-04-30T10:32:22;17.57;58.22
68257;DHT22;55069;51.568;4.656;2023-04-30T10:35:16;17.49;57.59
68257;DHT22;55069;51.568;4.656;2023-04-30T10:37:46;17.64;57.60
68257;DHT22;55069;51.568;4.656;2023-04-30T10:40:14;17.64;57.82
68257;DHT22;55069;51.568;4.656;2023-04-30T10:42:52;17.41;57.82
68257;DHT22;55069;51.568;4.656;2023-04-30T10:45:38;17.41;56.77
68257;DHT22;55069;51.568;4.656;2023-04-30T10:48:06;17.21;57.91
68257;DHT22;55069;51.568;4.656;2023-04-30T10:50:39;17.68;59.33
68257;DHT22;55069;51.568;4.656;2023-04-30T10:53:05;17.79;58.77
68257;DHT22;55069;51.568;4.656;2023-04-30T10:55:31;17.82;59.12
68257;DHT22;55069;51.568;4.656;2023-04-30T10:57:58;17.58;57.53
68257;DHT22;55069;51.568;4.656;2023-04-30T11:00:25;17.61;57.56
68257;DHT22;55069;51.568;4.656;2023-04-30T11:02:56;17.81;59.01
68257;DHT22;55069;51.568;4.656;2023-04-30T11:05:34;17.90;57.69
68257;DHT22;55069;51.568;4.656;2023-04-30T11:07:59;18.16;58.36
68257;DHT22;55069;51.568;4.656;2023-04-30T11:10:29;18.37;57.89
68257;DHT22;55069;51.568;4.656;2023-04-30T11:12:56;18.69;57.27
68257;DHT22;55069;51.568;4.656;2023-04-30T11:15:34;17.83;56.40
68257;DHT22;55069;51.568;4.656;2023-04-30T11:18:01;17.85;57.78
68257;DHT22;55069;51.568;4.656;2023-04-30T11:20:27;17.76;58.90
68257;DHT22;55069;51.568;4.656;2023-04-30T11:23:12;17.66;58.76
68257;DHT22;55069;51.568;4.656;2023-04-30T11:25:43;18.07;58.77
68257;DHT22;55069;51.568;4.656;2023-04-30T11:28:25;18.17;57.75
68257;DHT22;55069;51.568;4.656;2023-04-30T11:30:58;18.48;56.04
68257;DHT22;55069;51.568;4.656;2023-04-30T11:33:26;18.58;57.37
68257;DHT22;55069;51.568;4.656;2023-04-30T11:35:53;18.60;56.76
68257;DHT22;55069;51.568;4.656;2023-04-30T11:38:33;18.72;57.64
68257;DHT22;55069;51.568;4.656;2023-04-30T11:41:02;18.82;57.36
68257;DHT22;55069;51.568;4.656;2023-04-30T11:43:32;18.76;57.02
68257;DHT22;55069;51.568;4.656;2023-04-30T11:48:35;19.47;56.02
68257;DHT22;55069;51.568;4.656;2023-04-30T11:53:39;19.43;54.58
68257;DHT22;55069;51.568;4.656;2023-04-30T11:56:06;18.99;55.59
68257;DHT22;55069;51.568;4.656;2023-04-30T11:58:35;19.09;56.13
68257;DHT22;55069;51.568;4.656;2023-04-30T12:01:06;19.66;56.84
68257;DHT22;55069;51.568;4.656;2023-04-30T12:03:44;19.84;52.70
68257;DHT22;55069;51.568;4.656;2023-04-30T12:06:11;19.47;54.75
68257;DHT22;55069;51.568;4.656;2023-04-30T12:08:37;19.41;55.58
68257;DHT22;55069;51.568;4.656;2023-04-30T12:11:03;19.58;55.18
68257;DHT22;55069;51.568;4.656;2023-04-30T12:13:32;19.74;53.49
68257;DHT22;55069;51.568;4.656;2023-04-30T12:15:59;19.84;55.06
68257;DHT22;55069;51.568;4.656;2023-04-30T12:18:25;20.50;54.06
68257;DHT22;55069;51.568;4.656;2023-04-30T12:20:51;20.02;52.52
68257;DHT22;55069;51.568;4.656;2023-04-30T12:23:18;20.02;53.09
68257;DHT22;55069;51.568;4.656;2023-04-30T12:25:44;20.67;54.57
68257;DHT22;55069;51.568;4.656;2023-04-30T12:28:10;20.81;52.22
68257;DHT22;55069;51.568;4.656;2023-04-30T12:30:36;20.54;54.02
68257;DHT22;55069;51.568;4.656;2023-04-30T12:33:02;20.56;53.36
68257;DHT22;55069;51.568;4.656;2023-04-30T12:35:29;20.76;51.59
68257;DHT22;55069;51.568;4.656;2023-04-30T12:38:04;20.85;51.55
68257;DHT22;55069;51.568;4.656;2023-04-30T12:40:29;20.81;50.97
68257;DHT22;55069;51.568;4.656;2023-04-30T12:43:06;20.85;51.08
68257;DHT22;55069;51.568;4.656;2023-04-30T12:45:52;20.79;50.31
68257;DHT22;55069;51.568;4.656;2023-04-30T12:48:22;20.37;50.61
68257;DHT22;55069;51.568;4.656;2023-04-30T12:51:00;20.02;52.76
68257;DHT22;55069;51.568;4.656;2023-04-30T12:53:26;19.91;53.33
68257;DHT22;55069;51.568;4.656;2023-04-30T12:56:12;20.05;52.75
68257;DHT22;55069;51.568;4.656;2023-04-30T12:58:43;19.77;54.18
68257;DHT22;55069;51.568;4.656;2023-04-30T13:01:11;19.33;55.46
68257;DHT22;55069;51.568;4.656;2023-04-30T13:03:39;19.20;54.36
68257;DHT22;55069;51.568;4.656;2023-04-30T13:06:05;19.36;53.58
68257;DHT22;55069;51.568;4.656;2023-04-30T13:08:31;19.54;54.83
68257;DHT22;55069;51.568;4.656;2023-04-30T13:10:57;19.58;54.26
68257;DHT22;55069;51.568;4.656;2023-04-30T13:13:26;19.70;53.82
68257;DHT22;55069;51.568;4.656;2023-04-30T13:15:51;19.95;55.00
68257;DHT22;55069;51.568;4.656;2023-04-30T13:18:17;20.09;51.98
68257;DHT22;55069;51.568;4.656;2023-04-30T13:20:43;20.23;51.28
68257;DHT22;55069;51.568;4.656;2023-04-30T13:23:09;20.50;52.27
68257;DHT22;55069;51.568;4.656;2023-04-30T13:25:37;20.52;53.83
68257;DHT22;55069;51.568;4.656;2023-04-30T13:28:03;20.44;52.74
68257;DHT22;55069;51.568;4.656;2023-04-30T13:30:29;20.60;49.54
68257;DHT22;55069;51.568;4.656;2023-04-30T13:32:54;20.80;50.83
68257;DHT22;55069;51.568;4.656;2023-04-30T13:35:20;20.97;51.78
68257;DHT22;55069;51.568;4.656;2023-04-30T13:37:46;21.15;49.70
68257;DHT22;55069;51.568;4.656;2023-04-30T13:40:17;21.22;49.67
68257;DHT22;55069;51.568;4.656;2023-04-30T13:42:44;21.48;52.08
68257;DHT22;55069;51.568;4.656;2023-04-30T13:45:10;21.43;48.01
68257;DHT22;55069;51.568;4.656;2023-04-30T13:47:36;20.95;49.43
68257;DHT22;55069;51.568;4.656;2023-04-30T13:50:03;21.12;49.84
68257;DHT22;55069;51.568;4.656;2023-04-30T13:52:28;21.38;48.34
68257;DHT22;55069;51.568;4.656;2023-04-30T13:54:54;21.56;47.52
68257;DHT22;55069;51.568;4.656;2023-04-30T13:57:21;21.76;47.89
68257;DHT22;55069;51.568;4.656;2023-04-30T13:59:46;21.97;47.22
68257;DHT22;55069;51.568;4.656;2023-04-30T14:02:13;22.14;47.36
68257;DHT22;55069;51.568;4.656;2023-04-30T14:04:39;22.25;45.32
68257;DHT22;55069;51.568;4.656;2023-04-30T14:07:04;21.90;49.35
68257;DHT22;55069;51.568;4.656;2023-04-30T14:09:30;21.65;47.29
68257;DHT22;55069;51.568;4.656;2023-04-30T14:11:56;21.34;49.62
68257;DHT22;55069;51.568;4.656;2023-04-30T14:14:24;21.43;48.91
68257;DHT22;55069;51.568;4.656;2023-04-30T14:16:50;21.22;47.99
68257;DHT22;55069;51.568;4.656;2023-04-30T14:19:16;21.31;47.45
68257;DHT22;55069;51.568;4.656;2023-04-30T14:21:41;20.92;46.62
68257;DHT22;55069;51.568;4.656;2023-04-30T14:24:07;21.12;48.12
68257;DHT22;55069;51.568;4.656;2023-04-30T14:26:33;21.65;48.26
68257;DHT22;55069;51.568;4.656;2023-04-30T14:28:59;21.83;47.54
68257;DHT22;55069;51.568;4.656;2023-04-30T14:31:24;21.97;49.10
68257;DHT22;55069;51.568;4.656;2023-04-30T14:33:51;21.69;46.57
68257;DHT22;55069;51.568;4.656;2023-04-30T14:36:16;21.60;47.40
68257;DHT22;55069;51.568;4.656;2023-04-30T14:38:42;21.50;46.00
68257;DHT22;55069;51.568;4.656;2023-04-30T14:41:08;21.83;46.57
68257;DHT22;55069;51.568;4.656;2023-04-30T14:43:33;21.83;46.56
68257;DHT22;55069;51.568;4.656;2023-04-30T14:45:59;21.90;46.45
68257;DHT22;55069;51.568;4.656;2023-04-30T14:48:24;22.49;49.48
68257;DHT22;55069;51.568;4.656;2023-04-30T14:50:50;22.75;44.33
68257;DHT22;55069;51.568;4.656;2023-04-30T14:53:16;22.93;45.23
68257;DHT22;55069;51.568;4.656;2023-04-30T14:55:42;23.06;43.47
68257;DHT22;55069;51.568;4.656;2023-04-30T14:58:07;23.26;44.07
68257;DHT22;55069;51.568;4.656;2023-04-30T15:00:33;23.30;45.55
68257;DHT22;55069;51.568;4.656;2023-04-30T15:02:59;22.61;46.28
68257;DHT22;55069;51.568;4.656;2023-04-30T15:05:25;22.62;44.45
68257;DHT22;55069;51.568;4.656;2023-04-30T15:07:51;22.51;43.77
68257;DHT22;55069;51.568;4.656;2023-04-30T15:10:17;22.15;44.77
68257;DHT22;55069;51.568;4.656;2023-04-30T15:12:42;22.28;46.10
68257;DHT22;55069;51.568;4.656;2023-04-30T15:15:09;22.65;45.42
68257;DHT22;55069;51.568;4.656;2023-04-30T15:17:34;22.76;44.90
68257;DHT22;55069;51.568;4.656;2023-04-30T15:20:03;23.00;43.81
68257;DHT22;55069;51.568;4.656;2023-04-30T15:22:30;22.93;44.99
68257;DHT22;55069;51.568;4.656;2023-04-30T15:24:55;22.89;43.04
68257;DHT22;55069;51.568;4.656;2023-04-30T15:27:22;22.96;44.30
68257;DHT22;55069;51.568;4.656;2023-04-30T15:29:48;23.11;44.18
68257;DHT22;55069;51.568;4.656;2023-04-30T15:32:13;23.26;43.71
68257;DHT22;55069;51.568;4.656;2023-04-30T15:34:39;23.24;43.58
68257;DHT22;55069;51.568;4.656;2023-04-30T15:37:05;23.20;44.48
68257;DHT22;55069;51.568;4.656;2023-04-30T15:39:31;23.18;43.14
68257;DHT22;55069;51.568;4.656;2023-04-30T15:41:56;22.65;47.44
68257;DHT22;55069;51.568;4.656;2023-04-30T15:44:22;22.13;46.73
68257;DHT22;55069;51.568;4.656;2023-04-30T15:46:47;22.21;49.25
68257;DHT22;55069;51.568;4.656;2023-04-30T15:49:13;22.18;48.23
68257;DHT22;55069;51.568;4.656;2023-04-30T15:51:40;22.62;48.36
68257;DHT22;55069;51.568;4.656;2023-04-30T15:54:05;22.28;44.76
68257;DHT22;55069;51.568;4.656;2023-04-30T15:56:34;22.25;47.76
68257;DHT22;55069;51.568;4.656;2023-04-30T15:59:00;22.70;45.39
68257;DHT22;55069;51.568;4.656;2023-04-30T16:01:26;22.97;44.78